createdAt,value
2017-04-07T00:00:16.650Z,83.09
2017-04-07T00:01:26.589Z,84.13
2017-04-07T00:02:36.847Z,83.56
2017-04-07T00:03:47.111Z,83.33
2017-04-07T00:04:57.365Z,83.94
2017-04-07T00:06:07.623Z,84.42
2017-04-07T00:07:17.253Z,84.47
2017-04-07T00:08:27.506Z,83.9
2017-04-07T00:09:37.761Z,83.9
2017-04-07T00:10:48.025Z,84.19
2017-04-07T00:11:57.974Z,84.75
2017-04-07T00:13:07.944Z,85.04
2017-04-07T00:14:18.202Z,85.13
2017-04-07T00:15:28.462Z,85.8
2017-04-07T00:16:38.727Z,86.08
2017-04-07T00:17:48.979Z,85.89
2017-04-07T00:18:59.251Z,86.08
2017-04-07T00:20:08.882Z,86.18
2017-04-07T00:21:19.136Z,86.08
2017-04-07T00:22:29.394Z,86.08
2017-04-07T00:23:39.677Z,85.99
2017-04-07T00:24:49.929Z,85.42
2017-04-07T00:26:00.183Z,85.99
2017-04-07T00:27:10.126Z,86.08
2017-04-07T00:28:20.386Z,86.08
2017-04-07T00:29:30.645Z,85.8
2017-04-07T00:30:40.911Z,86.74
2017-04-07T00:31:51.168Z,87.31
2017-04-07T00:33:01.432Z,86.74
2017-04-07T00:34:11.689Z,86.93
2017-04-07T00:35:21.628Z,86.83
2017-04-07T00:36:31.893Z,87.02
2017-04-07T00:37:42.154Z,86.93
2017-04-07T00:38:52.411Z,86.36
2017-04-07T00:40:02.670Z,86.27
2017-04-07T00:41:12.930Z,86.27
2017-04-07T00:42:23.185Z,86.32
2017-04-07T00:43:33.445Z,86.46
2017-04-07T00:44:43.699Z,86.79
2017-04-07T00:45:53.956Z,87.55
2017-04-07T00:47:04.218Z,87.27
2017-04-07T00:48:14.470Z,86.79
2017-04-07T00:49:24.734Z,87.46
2017-04-07T00:50:34.999Z,87.36
2017-04-07T00:51:45.261Z,87.27
2017-04-07T00:52:55.513Z,87.08
2017-04-07T00:54:05.764Z,87.36
2017-04-07T00:55:15.702Z,88.49
2017-04-07T00:56:25.958Z,88.78
2017-04-07T00:57:36.215Z,89.06
2017-04-07T00:58:46.150Z,89.92
2017-04-07T00:59:56.399Z,89.92
2017-04-07T01:01:06.661Z,91.53
2017-04-07T01:02:16.920Z,90.48
2017-04-07T01:03:27.182Z,90.11
2017-04-07T01:04:37.439Z,89.63
2017-04-07T01:05:47.700Z,89.73
2017-04-07T01:06:57.973Z,90.58
2017-04-07T01:08:08.229Z,90.77
2017-04-07T01:09:18.486Z,90.77
2017-04-07T01:10:28.738Z,90.48
2017-04-07T01:11:38.676Z,90.67
2017-04-07T01:12:48.928Z,91.05
2017-04-07T01:13:59.181Z,91.15
2017-04-07T01:15:09.439Z,91.15
2017-04-07T01:16:19.696Z,91.43
2017-04-07T01:17:29.954Z,91.72
2017-04-07T01:18:40.214Z,91.62
2017-04-07T01:19:50.467Z,91.43
2017-04-07T01:21:00.720Z,91.62
2017-04-07T01:22:10.994Z,91.43
2017-04-07T01:23:21.248Z,91.15
2017-04-07T01:24:31.195Z,91.62
2017-04-07T01:25:41.456Z,91.15
2017-04-07T01:26:51.714Z,91.05
2017-04-07T01:28:01.979Z,89.92
2017-04-07T01:29:12.241Z,89.92
2017-04-07T01:30:22.491Z,89.82
2017-04-07T01:31:32.748Z,89.73
2017-04-07T01:32:43.013Z,89.63
2017-04-07T01:33:53.261Z,90.3
2017-04-07T01:35:03.511Z,90.11
2017-04-07T01:36:13.766Z,90.58
2017-04-07T01:37:24.028Z,90.67
2017-04-07T01:38:34.330Z,91.34
2017-04-07T01:39:44.580Z,90.86
2017-04-07T01:40:54.836Z,90.67
2017-04-07T01:42:05.091Z,90.48
2017-04-07T01:43:15.348Z,90.77
2017-04-07T01:44:25.604Z,91.05
2017-04-07T01:45:35.861Z,90.44
2017-04-07T01:50:37.275Z,91.34
2017-04-07T01:51:47.531Z,91.29
2017-04-07T01:52:57.790Z,90.91
2017-04-07T01:54:08.047Z,90.25
2017-04-07T01:55:18.298Z,90.63
2017-04-07T01:56:28.558Z,90.44
2017-04-07T01:57:38.817Z,91.48
2017-04-07T01:58:49.072Z,91.39
2017-04-07T01:59:59.019Z,92.14
2017-04-07T02:01:09.302Z,92.33
2017-04-07T02:02:19.555Z,92.99
2017-04-07T02:03:29.811Z,92.43
2017-04-07T02:04:39.754Z,92.71
2017-04-07T02:05:50.011Z,93.85
2017-04-07T02:07:00.265Z,94.42
2017-04-07T02:08:10.540Z,95.17
2017-04-07T02:09:20.484Z,95.26
2017-04-07T02:10:30.740Z,95.07
2017-04-07T02:11:41.002Z,95.55
2017-04-07T02:12:51.258Z,95.36
2017-04-07T02:14:01.512Z,96.12
2017-04-07T02:15:11.763Z,96.31
2017-04-07T02:16:22.012Z,97.63
2017-04-07T02:17:32.260Z,98.29
2017-04-07T02:18:42.518Z,97.34
2017-04-07T02:19:52.772Z,96.31
2017-04-07T02:21:02.712Z,96.64
2017-04-07T02:22:12.971Z,97.58
2017-04-07T02:23:22.920Z,97.86
2017-04-07T02:24:33.176Z,98.52
2017-04-07T02:25:43.425Z,98.71
2017-04-07T02:26:53.681Z,97.86
2017-04-07T02:28:03.938Z,98.33
2017-04-07T02:29:14.190Z,98.9
2017-04-07T02:30:24.131Z,98.81
2017-04-07T02:31:33.450Z,98.71
2017-04-07T02:32:43.711Z,98.62
2017-04-07T02:33:53.657Z,99.19
2017-04-07T02:35:03.915Z,99.38
2017-04-07T02:36:14.171Z,98.81
2017-04-07T02:37:24.131Z,97.77
2017-04-07T02:38:34.387Z,97.49
2017-04-07T02:39:44.327Z,97.49
2017-04-07T02:40:54.276Z,96.45
2017-04-07T02:42:04.538Z,97.11
2017-04-07T02:43:14.789Z,97.01
2017-04-07T02:44:25.041Z,97.34
2017-04-07T02:45:34.978Z,97.06
2017-04-07T02:46:45.233Z,97.16
2017-04-07T02:47:55.491Z,96.78
2017-04-07T02:49:05.744Z,96.88
2017-04-07T02:50:16.001Z,96.59
2017-04-07T02:51:26.263Z,96.88
2017-04-07T02:52:36.522Z,96.02
2017-04-07T02:53:46.781Z,96.4
2017-04-07T02:54:57.038Z,96.88
2017-04-07T02:56:07.296Z,97.34
2017-04-07T02:57:17.557Z,96.78
2017-04-07T02:58:27.820Z,97.63
2017-04-07T02:59:38.075Z,97.25
2017-04-07T03:00:48.334Z,97.53
2017-04-07T03:01:58.581Z,97.16
2017-04-07T03:03:08.835Z,96.78
2017-04-07T03:04:19.096Z,96.31
2017-04-07T03:05:29.356Z,96.59
2017-04-07T03:06:39.297Z,96.78
2017-04-07T03:07:49.550Z,96.31
2017-04-07T03:08:59.799Z,96.4
2017-04-07T03:10:10.055Z,95.74
2017-04-07T03:11:20.310Z,95.74
2017-04-07T03:12:30.570Z,95.55
2017-04-07T03:13:40.819Z,95.64
2017-04-07T03:14:51.077Z,95.55
2017-04-07T03:16:00.424Z,96.4
2017-04-07T03:17:10.684Z,96.59
2017-04-07T03:18:20.936Z,96.21
2017-04-07T03:19:31.216Z,96.69
2017-04-07T03:20:41.479Z,96.78
2017-04-07T03:21:51.736Z,97.16
2017-04-07T03:23:01.984Z,96.4
2017-04-07T03:24:11.925Z,96.59
2017-04-07T03:25:22.175Z,96.69
2017-04-07T03:26:32.441Z,96.69
2017-04-07T03:27:42.381Z,96.31
2017-04-07T03:28:52.629Z,96.31
2017-04-07T03:30:02.892Z,96.31
2017-04-07T03:31:12.834Z,95.55
2017-04-07T03:32:23.093Z,95.07
2017-04-07T03:33:33.036Z,95.5
2017-04-07T03:34:42.980Z,96.83
2017-04-07T03:35:53.243Z,96.78
2017-04-07T03:37:03.188Z,97.49
2017-04-07T03:38:13.132Z,97.11
2017-04-07T03:39:23.383Z,97.3
2017-04-07T03:40:33.641Z,97.01
2017-04-07T03:41:43.581Z,96.45
2017-04-07T03:42:53.839Z,96.07
2017-04-07T03:44:04.099Z,95.97
2017-04-07T03:45:14.039Z,94.93
2017-04-07T03:46:24.293Z,95.03
2017-04-07T03:47:34.547Z,95.78
2017-04-07T03:48:44.805Z,95.12
2017-04-07T03:49:55.068Z,95.03
2017-04-07T03:51:05.324Z,95.31
2017-04-07T03:52:15.580Z,95.78
2017-04-07T03:53:25.836Z,95.69
2017-04-07T03:54:36.093Z,96.26
2017-04-07T03:55:46.350Z,96.45
2017-04-07T03:56:56.599Z,96.83
2017-04-07T03:58:06.851Z,96.73
2017-04-07T03:59:17.102Z,96.45
2017-04-07T04:00:27.361Z,96.07
2017-04-07T04:01:37.616Z,96.07
2017-04-07T04:02:47.874Z,95.59
2017-04-07T04:03:58.132Z,95.59
2017-04-07T04:05:08.406Z,95.97
2017-04-07T04:06:18.668Z,95.59
2017-04-07T04:07:28.953Z,95.59
2017-04-07T04:08:38.888Z,96.45
2017-04-07T04:09:48.826Z,96.64
2017-04-07T04:10:59.081Z,96.35
2017-04-07T04:12:09.336Z,95.78
2017-04-07T04:13:19.594Z,95.69
2017-04-07T04:14:29.540Z,95.12
2017-04-07T04:15:39.481Z,95.4
2017-04-07T04:16:49.768Z,95.31
2017-04-07T04:18:00.023Z,95.03
2017-04-07T04:19:10.284Z,95.59
2017-04-07T04:20:20.541Z,96.73
2017-04-07T04:21:30.796Z,97.39
2017-04-07T04:22:41.057Z,97.58
2017-04-07T04:23:51.308Z,97.39
2017-04-07T04:25:01.566Z,97.2
2017-04-07T04:26:11.822Z,97.39
2017-04-07T04:27:22.086Z,96.83
2017-04-07T04:28:32.334Z,96.92
2017-04-07T04:29:42.589Z,97.58
2017-04-07T04:30:52.844Z,96.92
2017-04-07T04:32:02.785Z,97.39
2017-04-07T04:33:13.042Z,97.49
2017-04-07T04:34:22.982Z,97.49
2017-04-07T04:35:33.247Z,97.01
2017-04-07T04:36:43.511Z,96.45
2017-04-07T04:37:53.770Z,96.35
2017-04-07T04:39:04.027Z,96.73
2017-04-07T04:40:14.283Z,96.54
2017-04-07T04:41:24.223Z,96.83
2017-04-07T04:42:34.475Z,96.83
2017-04-07T04:43:43.786Z,96.26
2017-04-07T04:44:54.045Z,96.83
2017-04-07T04:46:04.299Z,97.06
2017-04-07T04:47:14.238Z,97.01
2017-04-07T04:48:24.497Z,96.54
2017-04-07T04:49:34.747Z,96.69
2017-04-07T04:50:44.997Z,96.88
2017-04-07T04:51:55.259Z,96.4
2017-04-07T04:53:05.510Z,95.45
2017-04-07T04:54:15.761Z,95.64
2017-04-07T04:55:25.698Z,95.12
2017-04-07T04:56:35.634Z,95.59
2017-04-07T04:57:45.882Z,96.26
2017-04-07T04:58:56.138Z,96.26
2017-04-07T05:00:06.390Z,97.11
2017-04-07T05:01:16.334Z,97.11
2017-04-07T05:02:26.618Z,97.01
2017-04-07T05:03:36.872Z,96.92
2017-04-07T05:04:47.124Z,96.92
2017-04-07T05:05:57.381Z,97.11
2017-04-07T05:07:07.639Z,98.01
2017-04-07T05:08:17.895Z,97.44
2017-04-07T05:09:28.152Z,97.34
2017-04-07T05:10:38.093Z,98.01
2017-04-07T05:11:48.355Z,99.05
2017-04-07T05:12:58.609Z,99.43
2017-04-07T05:14:08.855Z,98.67
2017-04-07T05:15:19.112Z,98.1
2017-04-07T05:16:29.373Z,98.01
2017-04-07T05:17:38.999Z,97.91
2017-04-07T05:18:49.246Z,98.01
2017-04-07T05:19:59.499Z,98.1
2017-04-07T05:21:09.751Z,97.16
2017-04-07T05:22:20.003Z,98.96
2017-04-07T05:23:30.261Z,98.77
2017-04-07T05:24:40.513Z,98.2
2017-04-07T05:25:50.767Z,97.72
2017-04-07T05:27:01.020Z,97.44
2017-04-07T05:28:10.962Z,97.02
2017-04-07T05:29:21.213Z,97.49
2017-04-07T05:30:31.158Z,97.39
2017-04-07T05:31:41.413Z,97.39
2017-04-07T05:32:51.674Z,97.2
2017-04-07T05:34:01.927Z,97.11
2017-04-07T05:35:12.181Z,96.64
2017-04-07T05:36:22.439Z,96.26
2017-04-07T05:37:32.375Z,95.88
2017-04-07T05:38:42.655Z,95.88
2017-04-07T05:39:52.912Z,96.26
2017-04-07T05:41:03.166Z,96.16
2017-04-07T05:42:13.422Z,95.69
2017-04-07T05:43:23.673Z,95.5
2017-04-07T05:44:33.933Z,95.21
2017-04-07T05:45:44.185Z,95.31
2017-04-07T05:46:54.451Z,96.07
2017-04-07T05:48:04.708Z,95.5
2017-04-07T05:49:14.649Z,95.5
2017-04-07T05:50:24.910Z,95.69
2017-04-07T05:51:35.163Z,95.12
2017-04-07T05:52:45.111Z,95.03
2017-04-07T05:53:55.368Z,94.46
2017-04-07T05:55:05.319Z,93.99
2017-04-07T05:56:15.595Z,94.08
2017-04-07T05:57:25.538Z,93.89
2017-04-07T05:58:35.789Z,94.27
2017-04-07T05:59:45.725Z,94.74
2017-04-07T06:00:55.682Z,95.4
2017-04-07T06:02:05.980Z,95.59
2017-04-07T06:03:15.926Z,95.59
2017-04-07T06:04:26.193Z,94.93
2017-04-07T06:05:36.468Z,96.07
2017-04-07T06:06:46.410Z,95.12
2017-04-07T06:07:56.671Z,95.31
2017-04-07T06:09:06.929Z,93.61
2017-04-07T06:10:17.182Z,93.61
2017-04-07T06:11:27.437Z,93.99
2017-04-07T06:12:37.698Z,93.61
2017-04-07T06:13:47.953Z,94.08
2017-04-07T06:14:58.210Z,93.89
2017-04-07T06:16:08.158Z,93.61
2017-04-07T06:17:18.417Z,93.61
2017-04-07T06:18:28.667Z,94.56
2017-04-07T06:19:38.611Z,94.74
2017-04-07T06:20:48.861Z,94.37
2017-04-07T06:21:59.112Z,94.93
2017-04-07T06:23:09.370Z,94.42
2017-04-07T06:24:19.654Z,94.6
2017-04-07T06:25:29.597Z,94.98
2017-04-07T06:26:39.877Z,94.89
2017-04-07T06:27:50.133Z,94.79
2017-04-07T06:29:00.395Z,93.75
2017-04-07T06:30:10.650Z,93.84
2017-04-07T06:31:20.909Z,93.99
2017-04-07T06:32:30.889Z,93.61
2017-04-07T06:33:40.516Z,94.08
2017-04-07T06:34:50.766Z,93.23
2017-04-07T06:36:01.022Z,92.66
2017-04-07T06:37:11.283Z,91.43
2017-04-07T06:38:21.542Z,91.43
2017-04-07T06:39:31.802Z,91.33
2017-04-07T06:40:42.053Z,90.58
2017-04-07T06:41:52.316Z,90.95
2017-04-07T06:43:02.582Z,90.91
2017-04-07T06:44:12.841Z,90.34
2017-04-07T06:45:23.102Z,90.34
2017-04-07T06:46:33.359Z,90.34
2017-04-07T06:47:43.298Z,90.24
2017-04-07T06:48:53.701Z,89.86
2017-04-07T06:50:03.989Z,89.11
2017-04-07T06:51:14.249Z,89.01
2017-04-07T06:52:24.506Z,89.11
2017-04-07T06:53:34.445Z,88.77
2017-04-07T06:54:44.703Z,88.1
2017-04-07T06:55:54.953Z,88.39
2017-04-07T06:57:05.211Z,89.25
2017-04-07T06:58:15.183Z,89.34
2017-04-07T06:59:25.441Z,89.81
2017-04-07T07:00:35.700Z,88.58
2017-04-07T07:01:45.959Z,89.06
2017-04-07T07:02:56.214Z,88.01
2017-04-07T07:04:06.470Z,87.35
2017-04-07T07:05:16.734Z,87.25
2017-04-07T07:06:27.002Z,87.63
2017-04-07T07:07:37.259Z,87.45
2017-04-07T07:08:47.515Z,87.16
2017-04-07T07:09:57.774Z,87.16
2017-04-07T07:11:07.721Z,86.59
2017-04-07T07:12:17.667Z,86.97
2017-04-07T07:13:27.922Z,86.78
2017-04-07T07:14:38.177Z,85.59
2017-04-07T07:15:48.129Z,85.64
2017-04-07T07:16:58.388Z,85.45
2017-04-07T07:18:08.386Z,85.45
2017-04-07T07:19:18.652Z,86.11
2017-04-07T07:20:28.911Z,86.11
2017-04-07T07:21:39.207Z,86.44
2017-04-07T07:22:49.471Z,86.07
2017-04-07T07:23:59.734Z,86.11
2017-04-07T07:25:10.029Z,86.35
2017-04-07T07:26:20.294Z,86.07
2017-04-07T07:27:30.554Z,85.97
2017-04-07T07:28:40.500Z,85.78
2017-04-07T07:29:50.762Z,84.92
2017-04-07T07:31:00.708Z,85.21
2017-04-07T07:32:11.003Z,84.74
2017-04-07T07:33:21.261Z,85.3
2017-04-07T07:34:31.519Z,84.83
2017-04-07T07:35:41.787Z,85.21
2017-04-07T07:36:52.060Z,84.74
2017-04-07T07:38:02.317Z,85.21
2017-04-07T07:39:12.570Z,85.02
2017-04-07T07:40:22.822Z,85.3
2017-04-07T07:41:32.769Z,85.4
2017-04-07T07:42:43.027Z,85.49
2017-04-07T07:43:52.971Z,85.59
2017-04-07T07:45:02.916Z,84.92
2017-04-07T07:46:13.179Z,85.21
2017-04-07T07:47:23.126Z,85.59
2017-04-07T07:48:33.383Z,85.4
2017-04-07T07:49:43.640Z,84.64
2017-04-07T07:50:53.895Z,84.83
2017-04-07T07:52:04.159Z,84.74
2017-04-07T07:53:14.104Z,84.74
2017-04-07T07:54:24.359Z,85.02
2017-04-07T07:55:34.294Z,85.97
2017-04-07T07:56:44.551Z,86.35
2017-04-07T07:57:54.804Z,87.3
2017-04-07T07:59:05.002Z,86.87
2017-04-07T08:00:15.258Z,86.3
2017-04-07T08:01:25.511Z,86.77
2017-04-07T08:02:35.459Z,85.91
2017-04-07T08:03:45.719Z,85.44
2017-04-07T08:04:55.981Z,83.26
2017-04-07T08:06:06.249Z,83.26
2017-04-07T08:07:16.196Z,84.11
2017-04-07T08:08:26.457Z,83.26
2017-04-07T08:09:36.740Z,82.31
2017-04-07T08:10:46.995Z,82.21
2017-04-07T08:11:57.255Z,82.82
2017-04-07T08:13:07.512Z,83.45
2017-04-07T08:14:17.775Z,82.54
2017-04-07T08:15:28.033Z,81.78
2017-04-07T08:16:37.999Z,81.4
2017-04-07T08:17:48.254Z,81.68
2017-04-07T08:18:58.513Z,81.68
2017-04-07T08:20:08.776Z,81.59
2017-04-07T08:21:19.045Z,81.49
2017-04-07T08:22:31.304Z,80.64
2017-04-07T08:23:41.560Z,79.88
2017-04-07T08:24:51.814Z,80.16
2017-04-07T08:26:02.072Z,80.16
2017-04-07T08:27:12.332Z,80.35
2017-04-07T08:28:22.592Z,78.17
2017-04-07T08:29:32.854Z,78.45
2017-04-07T08:30:43.190Z,78.27
2017-04-07T08:31:53.479Z,78.45
2017-04-07T08:33:03.743Z,79.22
2017-04-07T08:34:14.012Z,78.55
2017-04-07T08:35:24.264Z,78.08
2017-04-07T08:36:34.525Z,79.12
2017-04-07T08:37:44.783Z,79.6
2017-04-07T08:38:55.052Z,78.64
2017-04-07T08:40:05.001Z,78.83
2017-04-07T08:41:14.948Z,79.03
2017-04-07T08:42:25.204Z,79.36
2017-04-07T08:43:35.466Z,79.22
2017-04-07T08:44:45.721Z,79.03
2017-04-07T08:45:55.986Z,79.03
2017-04-07T08:47:06.238Z,80.26
2017-04-07T08:48:16.528Z,79.97
2017-04-07T08:49:26.783Z,79.22
2017-04-07T08:50:37.045Z,79.22
2017-04-07T08:51:46.681Z,78.59
2017-04-07T08:52:56.967Z,78.78
2017-04-07T08:54:07.228Z,78.5
2017-04-07T08:55:17.496Z,78.5
2017-04-07T08:56:27.753Z,77.64
2017-04-07T08:57:37.703Z,76.69
2017-04-07T08:58:47.958Z,76.78
2017-04-07T08:59:58.220Z,76.31
2017-04-07T09:01:08.192Z,76.63
2017-04-07T09:02:18.147Z,76.82
2017-04-07T09:03:28.409Z,76.82
2017-04-07T09:04:38.666Z,75.96
2017-04-07T09:05:48.610Z,76.44
2017-04-07T09:06:58.872Z,75.49
2017-04-07T09:08:09.130Z,75.78
2017-04-07T09:09:18.766Z,76.06
2017-04-07T09:10:29.020Z,76.2
2017-04-07T09:11:39.282Z,75.91
2017-04-07T09:12:49.552Z,75.62
2017-04-07T09:13:59.815Z,75.72
2017-04-07T09:15:10.075Z,75.15
2017-04-07T09:16:20.334Z,74.39
2017-04-07T09:17:30.288Z,73.53
2017-04-07T09:18:40.553Z,73.63
2017-04-07T09:19:50.827Z,73.63
2017-04-07T09:21:01.087Z,74.01
2017-04-07T09:22:11.348Z,73.53
2017-04-07T09:23:21.299Z,73.4
2017-04-07T09:24:31.244Z,73.69
2017-04-07T09:25:41.191Z,74.26
2017-04-07T09:26:51.456Z,75.68
2017-04-07T09:28:01.721Z,74.92
2017-04-07T09:29:11.983Z,75.02
2017-04-07T09:30:21.928Z,76.16
2017-04-07T09:31:32.190Z,76.73
2017-04-07T09:32:42.453Z,76.69
2017-04-07T09:33:52.768Z,76.59
2017-04-07T09:35:02.713Z,77.36
2017-04-07T09:36:12.666Z,77.26
2017-04-07T09:37:22.973Z,76.4
2017-04-07T09:38:33.233Z,76.69
2017-04-07T09:39:43.174Z,76.12
2017-04-07T09:40:53.128Z,76.03
2017-04-07T09:42:03.423Z,75.4
2017-04-07T09:43:13.689Z,74.26
2017-04-07T09:44:23.949Z,73.69
2017-04-07T09:45:34.203Z,73.4
2017-04-07T09:46:43.834Z,72.35
2017-04-07T09:47:54.105Z,72.64
2017-04-07T09:49:04.377Z,73.49
2017-04-07T09:50:14.641Z,72.35
2017-04-07T09:51:24.901Z,71.5
2017-04-07T09:52:35.171Z,71.06
2017-04-07T09:53:45.115Z,70.97
2017-04-07T09:54:55.375Z,70.39
2017-04-07T09:56:05.324Z,69.95
2017-04-07T09:57:15.269Z,69.48
2017-04-07T09:58:25.215Z,69.48
2017-04-07T09:59:35.475Z,69.48
2017-04-07T10:00:45.423Z,69.38
2017-04-07T10:01:55.688Z,67.67
2017-04-07T10:03:05.971Z,68.33
2017-04-07T10:04:15.921Z,67.32
2017-04-07T10:05:26.184Z,66.94
2017-04-07T10:06:36.442Z,66.18
2017-04-07T10:07:46.395Z,64.94
2017-04-07T10:08:56.654Z,63.42
2017-04-07T10:10:06.917Z,64.65
2017-04-07T10:11:17.183Z,62.85
2017-04-07T10:12:27.446Z,62.94
2017-04-07T10:13:37.714Z,63.42
2017-04-07T10:14:47.976Z,62.97
2017-04-07T10:15:58.243Z,62.97
2017-04-07T10:17:08.198Z,61.93
2017-04-07T10:18:18.153Z,60.69
2017-04-07T10:19:28.412Z,60.49
2017-04-07T10:20:38.360Z,60.4
2017-04-07T10:21:48.625Z,60.59
2017-04-07T10:22:58.895Z,60.4
2017-04-07T10:24:09.153Z,60.21
2017-04-07T10:25:21.109Z,59.16
2017-04-07T10:26:31.375Z,58.33
2017-04-07T10:27:41.636Z,57.86
2017-04-07T10:28:51.901Z,58.14
2017-04-07T10:30:02.171Z,58.43
2017-04-07T10:31:14.595Z,56.71
2017-04-07T10:32:24.544Z,57
2017-04-07T10:33:34.803Z,56.43
2017-04-07T10:34:45.069Z,57
2017-04-07T10:35:55.333Z,55.57
2017-04-07T10:37:05.292Z,56.04
2017-04-07T10:38:15.249Z,57.19
2017-04-07T10:39:25.509Z,55.79
2017-04-07T10:40:35.460Z,57.22
2017-04-07T10:41:45.414Z,55.31
2017-04-07T10:42:55.677Z,55.31
2017-04-07T10:44:05.959Z,55.5
2017-04-07T10:45:16.221Z,55.69
2017-04-07T10:46:26.172Z,53.59
2017-04-07T10:47:36.435Z,54.36
2017-04-07T10:48:46.735Z,54.07
2017-04-07T10:49:56.999Z,54.26
2017-04-07T10:51:07.265Z,54.83
2017-04-07T10:52:17.219Z,54.17
2017-04-07T10:53:27.493Z,54.36
2017-04-07T10:54:37.448Z,52.86
2017-04-07T10:55:47.397Z,54.77
2017-04-07T10:56:57.661Z,52.57
2017-04-07T10:58:07.615Z,53.43
2017-04-07T10:59:17.569Z,52.76
2017-04-07T11:00:27.519Z,52.48
2017-04-07T11:01:37.797Z,51.07
2017-04-07T11:02:48.059Z,51.26
2017-04-07T11:03:58.009Z,52.4
2017-04-07T11:05:08.272Z,52.4
2017-04-07T11:06:18.226Z,51.64
2017-04-07T11:07:28.489Z,50.78
2017-04-07T11:08:38.752Z,50.21
2017-04-07T11:09:49.022Z,50.49
2017-04-07T11:10:59.289Z,51.19
2017-04-07T11:12:09.556Z,48.61
2017-04-07T11:13:19.815Z,48.04
2017-04-07T11:14:29.756Z,48.42
2017-04-07T11:15:40.029Z,48.33
2017-04-07T11:16:49.983Z,48.07
2017-04-07T11:17:59.620Z,46.46
2017-04-07T11:19:09.897Z,47.03
2017-04-07T11:20:20.199Z,45.22
2017-04-07T11:21:30.464Z,45.34
2017-04-07T11:22:40.727Z,44.31
2017-04-07T11:23:50.997Z,43.08
2017-04-07T11:25:01.269Z,42.14
2017-04-07T11:26:11.554Z,40.42
2017-04-07T11:27:21.836Z,41.02
2017-04-07T11:28:32.107Z,40.54
2017-04-07T11:29:42.067Z,39.14
2017-04-07T11:30:52.335Z,37.51
2017-04-07T11:32:02.609Z,38.37
2017-04-07T11:33:12.256Z,38.29
2017-04-07T11:34:22.530Z,37.91
2017-04-07T11:35:32.810Z,38.12
2017-04-07T11:36:43.086Z,36.22
2017-04-07T11:37:53.366Z,34.49
2017-04-07T11:39:03.642Z,36.72
2017-04-07T11:40:13.918Z,35.28
2017-04-07T11:41:23.877Z,34.14
2017-04-07T11:42:33.524Z,34.83
2017-04-07T11:43:43.799Z,33.37
2017-04-07T11:44:54.090Z,32.98
2017-04-07T11:46:04.366Z,33.56
2017-04-07T11:47:14.652Z,33.74
2017-04-07T11:48:24.611Z,32.12
2017-04-07T11:49:34.922Z,32.59
2017-04-07T11:50:45.199Z,32.78
2017-04-07T11:51:55.163Z,33.28
2017-04-07T11:53:05.323Z,34.61
2017-04-07T11:54:15.602Z,32.51
2017-04-07T11:55:25.595Z,34.7
2017-04-07T11:56:35.559Z,33.97
2017-04-07T11:57:45.525Z,32.36
2017-04-07T11:58:55.487Z,31.69
2017-04-07T12:00:05.457Z,31.9
2017-04-07T12:01:15.737Z,31.9
2017-04-07T12:02:26.019Z,30.46
2017-04-07T12:03:35.994Z,29.71
2017-04-07T12:04:46.269Z,30.67
2017-04-07T12:05:56.233Z,28.66
2017-04-07T12:07:06.540Z,28.26
2017-04-07T12:08:16.827Z,28.84
2017-04-07T12:09:27.125Z,28.95
2017-04-07T12:10:37.442Z,26.35
2017-04-07T12:11:47.406Z,28.08
2017-04-07T12:12:57.684Z,27.7
2017-04-07T12:14:07.656Z,28.26
2017-04-07T12:15:17.930Z,27.78
2017-04-07T12:16:28.210Z,28.66
2017-04-07T12:17:38.177Z,28.37
2017-04-07T12:18:48.174Z,25.87
2017-04-07T12:19:58.457Z,26.54
2017-04-07T12:21:08.743Z,26.06
2017-04-07T12:22:18.709Z,27.87
2017-04-07T12:23:28.989Z,27.4
2017-04-07T12:24:39.286Z,26.75
2017-04-07T12:25:49.254Z,26.66
2017-04-07T12:26:59.528Z,25.51
2017-04-07T12:28:09.502Z,26.09
2017-04-07T12:29:19.791Z,26.2
2017-04-07T12:30:30.072Z,24.27
2017-04-07T12:31:40.348Z,25.51
2017-04-07T12:32:49.998Z,25.99
2017-04-07T12:33:59.964Z,24.27
2017-04-07T12:35:10.249Z,25.02
2017-04-07T12:36:20.215Z,25.59
2017-04-07T12:37:30.219Z,24.91
2017-04-07T12:38:40.502Z,26.07
2017-04-07T12:39:50.789Z,25.39
2017-04-07T12:41:01.070Z,25.96
2017-04-07T12:42:11.363Z,27.19
2017-04-07T12:43:21.017Z,27.45
2017-04-07T12:44:31.307Z,27.62
2017-04-07T12:45:41.274Z,29.43
2017-04-07T12:46:51.554Z,29.91
2017-04-07T12:48:01.828Z,29.83
2017-04-07T12:49:12.105Z,29.17
2017-04-07T12:50:21.757Z,28.89
2017-04-07T12:51:32.036Z,29.2
2017-04-07T12:52:42.317Z,29.29
2017-04-07T12:53:52.597Z,28.81
2017-04-07T12:55:02.871Z,27.76
2017-04-07T12:56:13.149Z,26.53
2017-04-07T12:57:23.437Z,26.53
2017-04-07T12:58:33.711Z,26.54
2017-04-07T12:59:43.673Z,26.55
2017-04-07T13:00:53.636Z,25.9
2017-04-07T13:02:03.605Z,26.19
2017-04-07T13:03:13.881Z,25.42
2017-04-07T13:04:24.164Z,25.31
2017-04-07T13:05:34.442Z,26.18
2017-04-07T13:06:44.728Z,25.5
2017-04-07T13:07:55.015Z,26.17
2017-04-07T13:09:05.379Z,26.82
2017-04-07T13:10:15.657Z,27.39
2017-04-07T13:11:25.625Z,28.16
2017-04-07T13:12:35.906Z,28.16
2017-04-07T13:13:46.186Z,28.08
2017-04-07T13:14:56.152Z,27.7
2017-04-07T13:16:06.119Z,26.95
2017-04-07T13:17:16.424Z,24.26
2017-04-07T13:18:26.706Z,23.08
2017-04-07T13:19:36.982Z,24.88
2017-04-07T13:20:47.258Z,25.26
2017-04-07T13:21:57.536Z,26.03
2017-04-07T13:23:07.191Z,26.7
2017-04-07T13:24:17.472Z,25.37
2017-04-07T13:25:27.440Z,25.64
2017-04-07T13:26:37.727Z,26.51
2017-04-07T13:27:47.696Z,25.37
2017-04-07T13:28:57.985Z,24.98
2017-04-07T13:30:08.258Z,25.74
2017-04-07T13:31:18.239Z,26.02
2017-04-07T13:32:28.214Z,26.48
2017-04-07T13:33:38.490Z,27.42
2017-04-07T13:34:48.776Z,27.71
2017-04-07T13:35:59.058Z,27.92
2017-04-07T13:37:09.339Z,28.67
2017-04-07T13:38:19.624Z,28.19
2017-04-07T13:39:29.906Z,29.17
2017-04-07T13:40:40.184Z,29.25
2017-04-07T13:41:50.456Z,28.78
2017-04-07T13:43:00.732Z,29.63
2017-04-07T13:44:10.696Z,29.35
2017-04-07T13:45:20.978Z,28.59
2017-04-07T13:46:31.251Z,29.35
2017-04-07T13:47:41.524Z,30.11
2017-04-07T13:48:51.831Z,30.5
2017-04-07T13:50:01.799Z,30.79
2017-04-07T13:51:12.081Z,29.84
2017-04-07T13:52:22.354Z,29.84
2017-04-07T13:53:32.627Z,29
2017-04-07T13:54:42.588Z,28.53
2017-04-07T13:55:52.582Z,28.83
2017-04-07T13:57:02.545Z,28.16
2017-04-07T13:58:12.825Z,27.78
2017-04-07T13:59:23.101Z,27.7
2017-04-07T14:00:33.373Z,27.98
2017-04-07T14:01:43.660Z,27.7
2017-04-07T14:02:53.938Z,27.8
2017-04-07T14:04:04.215Z,27.5
2017-04-07T14:05:14.491Z,26.53
2017-04-07T14:06:24.773Z,28.05
2017-04-07T14:07:35.056Z,28.05
2017-04-07T14:08:45.338Z,28.14
2017-04-07T14:09:55.619Z,28.81
2017-04-07T14:11:05.897Z,28.52
2017-04-07T14:12:16.170Z,28.61
2017-04-07T14:13:26.441Z,29.1
2017-04-07T14:14:36.724Z,29.2
2017-04-07T14:15:47.006Z,28.72
2017-04-07T14:16:57.284Z,28.42
2017-04-07T14:18:07.243Z,29
2017-04-07T14:19:17.207Z,28.8
2017-04-07T14:20:27.482Z,28.62
2017-04-07T14:21:37.450Z,29.08
2017-04-07T14:22:47.725Z,29.29
2017-04-07T14:23:57.996Z,28.15
2017-04-07T14:25:08.269Z,27.6
2017-04-07T14:26:18.233Z,27.6
2017-04-07T14:27:28.520Z,26.73
2017-04-07T14:28:38.792Z,26.93
2017-04-07T14:29:49.070Z,26.75
2017-04-07T14:30:59.344Z,26.66
2017-04-07T14:32:09.623Z,26.07
2017-04-07T14:33:19.907Z,26.55
2017-04-07T14:34:30.193Z,26.34
2017-04-07T14:35:40.471Z,26.15
2017-04-07T14:36:50.747Z,26.51
2017-04-07T14:38:01.031Z,27.38
2017-04-07T14:39:10.995Z,27.08
2017-04-07T14:40:21.266Z,27.75
2017-04-07T14:41:31.532Z,28.51
2017-04-07T14:42:41.811Z,28.51
2017-04-07T14:43:52.089Z,28.78
2017-04-07T14:45:02.367Z,28.3
2017-04-07T14:46:12.649Z,29.27
2017-04-07T14:47:22.926Z,28.88
2017-04-07T14:48:32.887Z,29.54
2017-04-07T14:49:43.170Z,29.25
2017-04-07T14:50:53.455Z,29.54
2017-04-07T14:52:03.719Z,30.11
2017-04-07T14:53:13.680Z,29.83
2017-04-07T14:54:23.975Z,30
2017-04-07T14:55:33.936Z,30
2017-04-07T14:56:44.203Z,29.91
2017-04-07T14:57:53.850Z,30.39
2017-04-07T14:59:04.120Z,30.39
2017-04-07T15:00:14.079Z,30.58
2017-04-07T15:01:24.355Z,30.57
2017-04-07T15:02:33.998Z,30.76
2017-04-07T15:03:44.283Z,31.34
2017-04-07T15:04:54.554Z,31.62
2017-04-07T15:06:04.828Z,30.85
2017-04-07T15:07:15.108Z,31.15
2017-04-07T15:08:25.378Z,30.85
2017-04-07T15:09:35.651Z,31.41
2017-04-07T15:10:45.294Z,31.9